• Join FlightAware (Why Join?)
  • Login
  • US Flag 
12:51PM EDT


 

Airport Tracker/Info


-or-


 

Live Flight TrackerFlight Track Log ✈ N4113B ✈ 17-Sep-2013 ✈ KACK - KMTN

Flight Track Log - Related Links

Times and Time Zones

All times are in EDT time to prevent confusion due to time zone crossing. See the N4113B flight status page for this flight to view local times or setup timezone preferences in your user account.

Time Position Orientation Groundspeed Altitude Reporting Facility
EDT Latitude Longitude Course Direction KTS MPH feet Rate Location/Type
12:49PM 41.0817 -71.8453 249° West 183 211 6,400  Level Boston Center
12:50PM 41.0653 -71.9006 249° West 166 191 6,400 60 Level Boston Center
12:51PM 41.0500 -72.0167 260° West 172 198 6,600  Climbing New York TRACON
12:52PM 41.0333 -72.0667 246° West 175 201 6,500 -60 Descending New York TRACON
12:53PM 41.0167 -72.1333 252° West 175 201 6,500  Level New York TRACON
12:54PM 41.0000 -72.2000 252° West 178 205 6,500  Level New York TRACON
12:55PM 40.9833 -72.2500 246° West 174 200 6,500  Level New York TRACON
12:56PM 40.9667 -72.3167 252° West 171 197 6,500  Level New York TRACON
12:57PM 40.9500 -72.3833 252° West 170 196 6,600  Climbing New York TRACON
12:58PM 40.9500 -72.4333 270° West 172 198 6,600  Level New York TRACON
12:59PM 40.9333 -72.5000 252° West 170 196 6,600  Level New York TRACON
01:01PM 40.9167 -72.5667 252° West 171 197 6,600 -60 Level New York TRACON
01:02PM 40.9000 -72.6167 246° West 173 199 6,500 -60 Descending New York TRACON
01:03PM 40.8833 -72.6833 252° West 170 196 6,500  Level New York TRACON
01:04PM 40.8667 -72.7333 246° West 168 193 6,600  Climbing New York TRACON
01:05PM 40.8667 -72.8000 270° West 172 198 6,500 -60 Descending New York TRACON
01:06PM 40.8500 -72.8667 252° West 169 194 6,500  Level New York TRACON
01:07PM 40.8333 -72.9167 246° West 169 194 6,500  Level New York TRACON
01:07PM 40.8167 -72.9667 246° West 166 191 6,500  Level New York TRACON
01:09PM 40.8000 -73.0333 252° West 174 200 6,500  Level New York TRACON
01:10PM 40.7833 -73.1000 252° West 171 197 6,600  Climbing New York TRACON
01:11PM 40.7833 -73.1667 270° West 176 203 6,500 -60 Descending New York TRACON
01:12PM 40.7667 -73.2167 246° West 166 191 6,500  Level New York TRACON
01:13PM 40.7500 -73.2833 252° West 173 199 6,500  Level New York TRACON
01:14PM 40.7333 -73.3500 252° West 171 197 6,500  Level New York TRACON
01:15PM 40.7167 -73.4000 246° West 176 203 6,500  Level New York TRACON
01:15PM 40.7167 -73.4500 270° West 167 192 6,500  Level New York TRACON
01:16PM 40.7000 -73.5167 252° West 166 191 6,500  Level New York TRACON
01:17PM 40.6833 -73.5667 246° West 166 191 6,500  Level New York TRACON
01:18PM 40.6667 -73.6333 252° West 166 191 6,500  Level New York TRACON
01:19PM 40.6667 -73.6833 270° West 163 188 6,500  Level New York TRACON
01:20PM 40.6500 -73.7500 252° West 150 173 6,600  Climbing New York TRACON
01:22PM 40.6215 -73.7976 232° Southwest  Level FlightAware Approximate
01:22PM 40.5833 -73.8333 232° Southwest 169 194 6,600  Level New York TRACON
01:23PM 40.5500 -73.8833 229° Southwest 168 193 6,500 -60 Descending New York TRACON
01:24PM 40.5333 -73.9333 246° West 171 197 6,500  Level New York TRACON
01:25PM 40.5000 -73.9833 229° Southwest 173 199 6,500  Level New York TRACON
01:26PM 40.4833 -74.0333 246° West 170 196 6,500  Level New York TRACON
01:27PM 40.4500 -74.0833 229° Southwest 168 193 6,500  Level New York TRACON
01:28PM 40.4333 -74.1333 246° West 166 191 6,600  Climbing New York TRACON
01:29PM 40.4000 -74.2000 237° Southwest 165 190 6,500 -60 Descending New York TRACON
01:30PM 40.3833 -74.2500 246° West 166 191 6,500  Level New York TRACON
01:31PM 40.3500 -74.3000 229° Southwest 170 196 6,500  Level New York TRACON
01:32PM 40.3333 -74.3500 246° West 167 192 6,600  Climbing New York TRACON
01:35PM 40.2682 -74.4372 226° Southwest  Level FlightAware Approximate
01:38PM 40.1833 -74.6500 237° Southwest 171 197 6,600  Level Philadelphia TRACON
01:39PM 40.1667 -74.6667 217° Southwest 173 199 6,600  Level Philadelphia TRACON
01:40PM 40.1333 -74.7333 237° Southwest 171 197 6,600  Level Philadelphia TRACON
01:41PM 40.1333 -74.7833 270° West 169 194 6,600 -60 Level Philadelphia TRACON
01:42PM 40.0510 -74.7482 237° Southwest  Level FlightAware Approximate
01:42PM 40.1167 -74.8333 246° West 167 192 6,500  Level Philadelphia TRACON
01:43PM 40.0260 -74.7983 237° Southwest  Level FlightAware Approximate
01:43PM 40.1000 -74.9000 252° West 167 192 6,500  Level Philadelphia TRACON
01:44PM 40.0010 -74.8483 237° Southwest  Level FlightAware Approximate
01:44PM 40.0833 -74.9667 252° West 166 191 6,500  Level Philadelphia TRACON
01:45PM 40.0667 -75.0167 246° West 163 188 6,500  Level Philadelphia TRACON
01:46PM 40.0667 -75.0667 270° West 168 193 6,500  Level Philadelphia TRACON
01:47PM 40.0500 -75.1333 252° West 167 192 6,500  Level Philadelphia TRACON
01:48PM 40.0333 -75.1833 246° West 168 193 6,500  Level Philadelphia TRACON
01:49PM 40.0167 -75.2500 252° West 168 193 6,500  Level Philadelphia TRACON
01:50PM 40.0000 -75.3167 252° West 169 194 6,500  Level Philadelphia TRACON
01:51PM 40.0000 -75.3667 270° West 167 192 6,500  Level Philadelphia TRACON
01:52PM 39.9833 -75.4333 252° West 168 193 6,500  Level Philadelphia TRACON
01:53PM 39.9667 -75.4833 247° West 168 193 6,500  Level Philadelphia TRACON
01:54PM 39.9500 -75.5500 252° West 168 193 6,600  Climbing Philadelphia TRACON
01:55PM 39.9333 -75.6000 247° West 168 193 6,500  Descending Philadelphia TRACON
01:56PM 39.9167 -75.6500 247° West 178 205 6,600  Climbing Philadelphia TRACON
01:57PM 39.8667 -75.7000 218° Southwest 175 201 6,600  Level Philadelphia TRACON
01:58PM 39.8333 -75.7500 229° Southwest 171 197 6,600 -60 Level Philadelphia TRACON
01:59PM 39.8167 -75.7833 237° Southwest 176 203 6,500 -60 Descending Philadelphia TRACON
02:00PM 39.7833 -75.8333 229° Southwest 170 196 6,500  Level Philadelphia TRACON
02:01PM 39.7333 -75.8833 218° Southwest 174 200 6,500  Level Philadelphia TRACON
02:02PM 39.7167 -75.9167 237° Southwest 169 194 6,600  Climbing Philadelphia TRACON
02:03PM 39.6833 -75.9667 229° Southwest 171 197 6,500 -300 Descending Philadelphia TRACON
02:04PM 39.6500 -76.0167 229° Southwest 186 214 6,000 -600 Descending Philadelphia TRACON
02:06PM 39.5833 -76.1167 229° Southwest 188 216 4,800 -600 Descending Potomac TRACON
02:07PM 39.5500 -76.1667 229° Southwest 183 211 4,300 -600 Descending Potomac TRACON
02:08PM 39.5333 -76.2167 247° West 178 205 3,700 -720 Descending Potomac TRACON
02:10PM 39.4654 -76.2813 229° Southwest  Level Estimated
02:11PM 39.4167 -76.3667 229° Southwest 173 199 1,400  Level Potomac TRACON
02:12PM 39.3833 -76.4000 218° Southwest 151 174 1,100 -300 Descending Potomac TRACON
02:13PM 39.3500 -76.4167 201° Southwest 111 128 900 -120 Descending Potomac TRACON
02:14PM 39.3333 -76.4000 142° Southeast 95 109 900 -300 Level Potomac TRACON
02:15PM 39.3167 -76.4000 180° South 98 113 300 -600 Descending Potomac TRACON
02:17PM 39.3257 -76.4138 North  Level Estimated
02:24PM 39.3257 -76.4138 223° Southwest  Level Estimated
02:25PM 39.3257 -76.4138 223° Southwest  Level Estimated
02:26PM 39.3257 -76.4138 223° Southwest  Level Estimated
02:27PM 39.3257 -76.4138 223° Southwest  Level Estimated
02:28PM 39.3257 -76.4138 223° Southwest  Level Estimated
02:29PM 39.3257 -76.4138 223° Southwest  Level Estimated
02:30PM 39.3257 -76.4138 223° Southwest  Level Estimated
02:31PM 39.3257 -76.4138 223° Southwest  Level Estimated
02:32PM 39.3257 -76.4138 223° Southwest  Level Estimated